Temp: --°C   Baro: 1019.1mb
  Wind: 2.0mph   Dir: SW (226°)
  Rain: 0.0mm (--mm/hr)
  Solar: W/m2  Hum: %
 
Cotswold Observatory Historical Data
 
Daily Summary for January 25, 2020 Units:  Metric    English   Both
Next Day »
Daily Weekly Monthly Yearly Custom
  Current: High: Low: Average:
Temperature: -17.8 °C 6.1 °C -17.8 °C 3 °C
Dew Point: -17.8 °C 5.1 °C -17.8 °C 2 °C
Humidity: % 93% % 81%
Wind Speed: 4.7km/h 4.7km/h 0.0km/h 0.3km/h
Wind Gust: 6.4km/h 9.7km/h - -
Wind directionSW - - SW
Pressure: 1018.8 hPa 1021.2 hPa 1018.8 hPa -
Precipitation: 0.0 mm      
Historical Graphs
 
 
Tabular Data for January 25, 2020
Time Temperature Dew Point Pressure Wind direction Wind Speed Wind Gust Humidity Rainfall Rate (Hourly) solar
00:00 6.0 °C 4.8 °C 1021.2 hPa Calm     92% 0.0 mm 0.00 W/m2
00:05 6.1 °C 5.1 °C 1021.2 hPa Calm     93% 0.0 mm 0.00 W/m2
00:10 6.0 °C 4.8 °C 1021.2 hPa Calm     92% 0.0 mm 0.00 W/m2
00:15 6.1 °C 5.1 °C 1021.2 hPa Calm     93% 0.0 mm 0.00 W/m2
00:20 6.1 °C 5.1 °C 1021.2 hPa Calm     93% 0.0 mm 0.00 W/m2
00:25 5.9 °C 4.7 °C 1021.2 hPa Calm     92% 0.0 mm 0.00 W/m2
00:30 5.9 °C 4.7 °C 1021.2 hPa Calm     92% 0.0 mm 0.00 W/m2
00:35 5.9 °C 4.9 °C 1021.2 hPa Calm     93% 0.0 mm 0.00 W/m2
00:40 5.9 °C 4.7 °C 1020.9 hPa Calm     92% 0.0 mm 0.00 W/m2
00:45 5.8 °C 4.6 °C 1020.9 hPa Calm     92% 0.0 mm 0.00 W/m2
00:50 5.9 °C 4.9 °C 1020.9 hPa Calm     93% 0.0 mm 0.00 W/m2
00:55 5.9 °C 4.7 °C 1020.9 hPa Calm     92% 0.0 mm 0.00 W/m2
01:00 5.8 °C 4.6 °C 1020.9 hPa Calm     92% 0.0 mm 0.00 W/m2
01:05 5.9 °C 4.9 °C 1020.9 hPa Calm     93% 0.0 mm 0.00 W/m2
01:10 5.8 °C 4.6 °C 1020.9 hPa Calm     92% 0.0 mm 0.00 W/m2
01:15 5.8 °C 4.8 °C 1020.5 hPa Calm     93% 0.0 mm 0.00 W/m2
01:20 5.8 °C 4.8 °C 1020.5 hPa Calm     93% 0.0 mm 0.00 W/m2
01:25 5.8 °C 4.8 °C 1020.5 hPa Calm     93% 0.0 mm 0.00 W/m2
01:30 5.8 °C 4.8 °C 1020.5 hPa Calm     93% 0.0 mm 0.00 W/m2
01:35 5.8 °C 4.8 °C 1020.5 hPa Calm     93% 0.0 mm 0.00 W/m2
01:40 5.8 °C 4.8 °C 1020.5 hPa Calm     93% 0.0 mm 0.00 W/m2
01:45 5.9 °C 4.9 °C 1020.5 hPa Calm     93% 0.0 mm 0.00 W/m2
01:50 5.8 °C 4.8 °C 1020.5 hPa Calm     93% 0.0 mm 0.00 W/m2
01:55 5.8 °C 4.8 °C 1020.5 hPa Calm     93% 0.0 mm 0.00 W/m2
02:00 5.8 °C 4.8 °C 1020.5 hPa Calm     93% 0.0 mm 0.00 W/m2
02:05 5.8 °C 4.8 °C 1020.2 hPa Calm     93% 0.0 mm 0.00 W/m2
02:10 5.8 °C 4.8 °C 1020.2 hPa Calm     93% 0.0 mm 0.00 W/m2
02:15 5.8 °C 4.8 °C 1020.2 hPa Calm     93% 0.0 mm 0.00 W/m2
02:20 5.8 °C 4.8 °C 1020.2 hPa Calm     93% 0.0 mm 0.00 W/m2
02:25 5.9 °C 4.9 °C 1020.2 hPa Calm     93% 0.0 mm 0.00 W/m2
02:30 5.8 °C 4.8 °C 1020.2 hPa Calm     93% 0.0 mm 0.00 W/m2
02:35 5.8 °C 4.8 °C 1020.2 hPa Calm     93% 0.0 mm 0.00 W/m2
02:40 5.9 °C 4.9 °C 1020.2 hPa SW 3.2 km/h 4.8 km/h 93% 0.0 mm 0.00 W/m2
02:45 5.9 °C 4.7 °C 1020.2 hPa SW 3.2 km/h 6.4 km/h 92% 0.0 mm 0.00 W/m2
02:50 5.9 °C 4.7 °C 1019.9 hPa Calm     92% 0.0 mm 0.00 W/m2
02:55 5.9 °C 4.7 °C 1019.9 hPa Calm     92% 0.0 mm 0.00 W/m2
03:00 5.9 °C 4.7 °C 1019.9 hPa Calm     92% 0.0 mm 0.00 W/m2
03:05 5.9 °C 4.7 °C 1019.9 hPa Calm     92% 0.0 mm 0.00 W/m2
03:10 5.9 °C 4.7 °C 1019.9 hPa Calm   3.2 km/h 92% 0.0 mm 0.00 W/m2
03:15 5.9 °C 4.5 °C 1019.9 hPa Calm   6.4 km/h 91% 0.0 mm 0.00 W/m2
03:20 5.9 °C 4.5 °C 1019.9 hPa Calm   6.4 km/h 91% 0.0 mm 0.00 W/m2
03:25 5.9 °C 4.7 °C 1019.5 hPa Calm     92% 0.0 mm 0.00 W/m2
03:30 6.1 °C 4.9 °C 1019.5 hPa Calm   3.2 km/h 92% 0.0 mm 0.00 W/m2
03:35 6.1 °C 4.9 °C 1019.5 hPa Calm     92% 0.0 mm 0.00 W/m2
03:40 6.1 °C 4.9 °C 1019.5 hPa Calm     92% 0.0 mm 0.00 W/m2
03:45 6.1 °C 4.9 °C 1019.5 hPa Calm     92% 0.0 mm 0.00 W/m2
03:50 6.1 °C 4.7 °C 1019.5 hPa Calm     91% 0.0 mm 0.00 W/m2
03:55 6.1 °C 4.7 °C 1019.5 hPa Calm     91% 0.0 mm 0.00 W/m2
04:00 6.0 °C 4.6 °C 1019.5 hPa Calm     91% 0.0 mm 0.00 W/m2
04:05 6.0 °C 4.6 °C 1019.5 hPa Calm     91% 0.0 mm 0.00 W/m2
04:10 5.9 °C 4.5 °C 1019.5 hPa Calm     91% 0.0 mm 0.00 W/m2
04:15 5.9 °C 4.5 °C 1019.5 hPa Calm     91% 0.0 mm 0.00 W/m2
04:20 5.9 °C 4.5 °C 1019.5 hPa Calm     91% 0.0 mm 0.00 W/m2
04:25 5.9 °C 4.5 °C 1019.2 hPa Calm     91% 0.0 mm 0.00 W/m2
04:30 5.8 °C 4.3 °C 1019.2 hPa Calm     90% 0.0 mm 0.00 W/m2
04:35 5.9 °C 4.5 °C 1019.2 hPa Calm     91% 0.0 mm 0.00 W/m2
04:40 5.8 °C 4.4 °C 1019.2 hPa Calm     91% 0.0 mm 0.00 W/m2
04:45 5.8 °C 4.4 °C 1019.2 hPa Calm     91% 0.0 mm 0.00 W/m2
04:50 5.8 °C 4.4 °C 1019.2 hPa Calm     91% 0.0 mm 0.00 W/m2
04:55 5.8 °C 4.4 °C 1019.2 hPa Calm     91% 0.0 mm 0.00 W/m2
05:00 5.8 °C 4.4 °C 1019.2 hPa Calm     91% 0.0 mm 0.00 W/m2
05:05 5.9 °C 4.5 °C 1019.2 hPa Calm     91% 0.0 mm 0.00 W/m2
05:10 5.9 °C 4.5 °C 1019.2 hPa Calm     91% 0.0 mm 0.00 W/m2
05:15 5.9 °C 4.5 °C 1019.2 hPa Calm     91% 0.0 mm 0.00 W/m2
05:20 5.9 °C 4.5 °C 1019.2 hPa Calm     91% 0.0 mm 0.00 W/m2
05:25 -17.8 °C -17.8 °C 1019.2 hPa Calm     % 0.0 mm W/m2
05:30 -17.8 °C -17.8 °C 1019.2 hPa SW 1.4 km/h 3.2 km/h % 0.0 mm W/m2
05:35 -17.8 °C -17.8 °C 1018.8 hPa SW 3.2 km/h 6.4 km/h % 0.0 mm W/m2
05:40 -17.8 °C -17.8 °C 1019.2 hPa SW 4.7 km/h 4.8 km/h % 0.0 mm W/m2
05:45 -17.8 °C -17.8 °C 1018.8 hPa Calm     % 0.0 mm W/m2
05:50 -17.8 °C -17.8 °C 1018.8 hPa Calm     % 0.0 mm W/m2
05:55 -17.8 °C -17.8 °C 1018.8 hPa Calm     % 0.0 mm W/m2
06:00 -17.8 °C -17.8 °C 1018.8 hPa SW 3.2 km/h 9.7 km/h % 0.0 mm W/m2
06:05 -17.8 °C -17.8 °C 1018.8 hPa SW 4.7 km/h 6.4 km/h % 0.0 mm W/m2